Time;durP1;ratioP1;P1;durP2;ratioP2;P2;SDS_P1;SDS_P2;PMS_P1;PMS_P2;Temp;Humidity;BMP_temperature;BMP_pressure;BME280_temperature;BME280_humidity;BME280_pressure;Samples;Min_cycle;Max_cycle;Signal;HPM_P1;HPM_P2
2022/09/22 00:01:11;;;;;;;4.17;3.07;;;;;;;;;;5052868;28;20570;-88
2022/09/22 00:03:41;;;;;;;3.90;2.60;;;;;;;;;;5052968;28;20234;-87
2022/09/22 00:06:10;;;;;;;5.33;3.13;;;;;;;;;;5052783;28;20603;-88
2022/09/22 00:08:38;;;;;;;3.00;2.70;;;;;;;;;;5052567;28;20238;-88
2022/09/22 00:11:08;;;;;;;8.03;3.10;;;;;;;;;;5053209;28;20210;-88
2022/09/22 00:13:36;;;;;;;3.47;3.17;;;;;;;;;;5051821;28;20229;-88
2022/09/22 00:16:03;;;;;;;3.67;3.10;;;;;;;;;;5052370;28;20214;-87
2022/09/22 00:18:30;;;;;;;5.10;2.93;;;;;;;;;;5052015;28;20234;-88
2022/09/22 00:20:58;;;;;;;3.57;3.27;;;;;;;;;;5052428;28;20202;-87
2022/09/22 00:23:27;;;;;;;3.33;3.03;;;;;;;;;;5051795;28;20234;-86
2022/09/22 00:25:54;;;;;;;4.63;3.10;;;;;;;;;;5051887;28;20804;-88
2022/09/22 00:28:25;;;;;;;3.17;2.97;;;;;;;;;;5051434;28;20662;-87
2022/09/22 00:30:52;;;;;;;3.47;3.17;;;;;;;;;;5052479;28;20586;-87
2022/09/22 00:33:19;;;;;;;4.83;3.30;;;;;;;;;;5051790;28;20210;-87
2022/09/22 00:35:56;;;;;;;3.47;3.17;;;;;;;;;;5052133;28;20217;-88
2022/09/22 00:38:23;;;;;;;4.27;3.20;;;;;;;;;;5051945;28;20236;-87
2022/09/22 00:40:52;;;;;;;3.43;3.13;;;;;;;;;;5052429;28;20206;-87
2022/09/22 00:43:20;;;;;;;3.33;3.13;;;;;;;;;;5051228;28;20198;-88
2022/09/22 00:45:49;;;;;;;4.07;3.67;;;;;;;;;;5051923;28;20229;-88
2022/09/22 00:48:17;;;;;;;4.43;3.53;;;;;;;;;;5051066;28;20194;-88
2022/09/22 00:50:44;;;;;;;7.63;3.27;;;;;;;;;;5052244;28;20202;-86
2022/09/22 00:53:13;;;;;;;3.93;3.30;;;;;;;;;;5051463;28;20255;-88
2022/09/22 00:55:43;;;;;;;6.07;3.87;;;;;;;;;;5052229;28;20232;-88
2022/09/22 00:58:13;;;;;;;6.10;3.43;;;;;;;;;;5051800;28;20209;-88
2022/09/22 01:00:40;;;;;;;2.90;2.70;;;;;;;;;;5052236;28;20198;-87
2022/09/22 01:03:10;;;;;;;8.07;2.87;;;;;;;;;;5051475;28;20202;-88
2022/09/22 01:05:38;;;;;;;4.17;2.73;;;;;;;;;;5049652;28;20668;-88
2022/09/22 01:08:05;;;;;;;3.40;2.90;;;;;;;;;;5051069;28;20233;-87
2022/09/22 01:10:32;;;;;;;2.63;2.33;;;;;;;;;;5052032;28;20203;-87
2022/09/22 01:13:04;;;;;;;3.10;2.80;;;;;;;;;;5051628;28;20670;-88
2022/09/22 01:15:38;;;;;;;2.87;2.60;;;;;;;;;;5051309;28;20249;-87
2022/09/22 01:18:13;;;;;;;2.73;2.53;;;;;;;;;;5052061;28;20216;-88
2022/09/22 01:20:56;;;;;;;2.77;2.50;;;;;;;;;;5052183;28;20197;-88
2022/09/22 01:23:38;;;;;;;2.47;2.37;;;;;;;;;;5051652;28;20213;-87
2022/09/22 01:26:16;;;;;;;3.23;2.70;;;;;;;;;;5021601;28;20237;-86
2022/09/22 01:28:57;;;;;;;3.00;2.77;;;;;;;;;;5055267;28;20233;-87
2022/09/22 01:31:30;;;;;;;3.30;2.50;;;;;;;;;;5055324;28;20198;-88
2022/09/22 01:34:00;;;;;;;2.90;2.70;;;;;;;;;;5055329;28;20634;-87
2022/09/22 01:36:32;;;;;;;2.90;2.60;;;;;;;;;;5055011;28;20725;-87
2022/09/22 01:39:05;;;;;;;5.03;2.60;;;;;;;;;;5055015;28;20230;-87
2022/09/22 01:41:51;;;;;;;3.13;2.13;;;;;;;;;;5055109;28;20669;-88
2022/09/22 01:44:21;;;;;;;2.70;2.00;;;;;;;;;;5054603;28;20721;-87
2022/09/22 01:46:54;;;;;;;2.77;2.57;;;;;;;;;;5054662;28;20240;-88
2022/09/22 01:49:22;;;;;;;3.17;2.50;;;;;;;;;;5054757;28;20316;-88
2022/09/22 01:51:50;;;;;;;2.53;2.30;;;;;;;;;;5051506;28;20206;-88
2022/09/22 01:54:19;;;;;;;3.20;2.70;;;;;;;;;;5054363;28;20816;-88
2022/09/22 01:56:48;;;;;;;5.87;2.77;;;;;;;;;;5054957;28;20692;-88
2022/09/22 01:59:17;;;;;;;3.10;2.80;;;;;;;;;;5054364;28;20241;-88
2022/09/22 02:01:46;;;;;;;3.57;2.70;;;;;;;;;;5060689;28;20202;-86
2022/09/22 02:04:17;;;;;;;3.87;2.60;;;;;;;;;;5054500;28;20238;-86
2022/09/22 02:06:47;;;;;;;3.97;2.37;;;;;;;;;;5055034;28;20222;-87
2022/09/22 02:09:16;;;;;;;2.83;2.63;;;;;;;;;;5054346;28;20287;-88
2022/09/22 02:11:43;;;;;;;3.83;2.50;;;;;;;;;;5055039;28;20217;-87
2022/09/22 02:14:10;;;;;;;2.90;2.23;;;;;;;;;;5054336;28;20245;-88
2022/09/22 02:16:37;;;;;;;4.07;2.43;;;;;;;;;;5054563;28;20275;-88
2022/09/22 02:19:09;;;;;;;3.60;2.90;;;;;;;;;;5053669;28;20242;-87
2022/09/22 02:21:38;;;;;;;9.27;2.80;;;;;;;;;;5054277;28;20222;-88
2022/09/22 02:24:06;;;;;;;2.70;2.50;;;;;;;;;;5053327;28;20229;-87
2022/09/22 02:26:35;;;;;;;3.67;2.50;;;;;;;;;;5054385;28;20261;-87
2022/09/22 02:29:03;;;;;;;9.40;3.50;;;;;;;;;;5053944;28;20234;-88
2022/09/22 02:31:33;;;;;;;5.97;2.90;;;;;;;;;;5063402;28;20206;-87
2022/09/22 02:34:00;;;;;;;5.90;2.63;;;;;;;;;;5072852;28;20229;-86
2022/09/22 02:36:35;;;;;;;5.43;2.80;;;;;;;;;;5071742;28;20214;-87
2022/09/22 02:39:06;;;;;;;3.13;2.73;;;;;;;;;;5066986;28;20588;-87
2022/09/22 02:41:48;;;;;;;3.63;2.60;;;;;;;;;;5055391;28;20217;-88
2022/09/22 02:44:18;;;;;;;6.67;2.70;;;;;;;;;;5057109;28;20234;-88
2022/09/22 02:46:47;;;;;;;2.90;2.70;;;;;;;;;;5061167;28;20230;-87
2022/09/22 02:49:16;;;;;;;3.87;2.67;;;;;;;;;;5053521;28;20248;-88
2022/09/22 02:51:45;;;;;;;2.77;2.57;;;;;;;;;;5054041;28;20209;-88
2022/09/22 02:54:13;;;;;;;2.67;2.43;;;;;;;;;;5053683;28;20241;-87
2022/09/22 02:56:40;;;;;;;3.10;2.70;;;;;;;;;;5054033;28;20250;-88
2022/09/22 02:59:09;;;;;;;4.37;2.50;;;;;;;;;;5053060;28;20233;-89
2022/09/22 03:01:36;;;;;;;3.77;2.60;;;;;;;;;;5039789;28;20247;-87
2022/09/22 03:04:03;;;;;;;2.77;2.57;;;;;;;;;;5053380;28;20242;-87
2022/09/22 03:06:30;;;;;;;7.83;2.53;;;;;;;;;;5053503;28;20218;-87
2022/09/22 03:08:57;;;;;;;5.27;2.90;;;;;;;;;;5052719;28;20244;-87
2022/09/22 03:11:26;;;;;;;3.13;2.93;;;;;;;;;;5053834;28;20205;-86
2022/09/22 03:13:53;;;;;;;3.30;3.00;;;;;;;;;;5053078;28;20313;-87
2022/09/22 03:16:20;;;;;;;2.70;2.50;;;;;;;;;;5053834;28;20312;-86
2022/09/22 03:18:47;;;;;;;2.50;2.40;;;;;;;;;;5052968;28;20706;-88
2022/09/22 03:21:14;;;;;;;3.10;2.80;;;;;;;;;;5053895;28;20202;-87
2022/09/22 03:23:41;;;;;;;3.00;2.80;;;;;;;;;;5053362;28;20241;-87
2022/09/22 03:26:08;;;;;;;4.43;2.87;;;;;;;;;;5053136;28;20902;-88
2022/09/22 03:28:37;;;;;;;3.50;2.50;;;;;;;;;;5052522;28;20245;-88
2022/09/22 03:31:04;;;;;;;3.10;2.90;;;;;;;;;;5054055;28;20213;-87
2022/09/22 03:33:31;;;;;;;3.30;2.67;;;;;;;;;;5053084;28;20234;-87
2022/09/22 03:35:58;;;;;;;3.53;3.00;;;;;;;;;;5053308;28;20713;-87
2022/09/22 03:38:25;;;;;;;4.70;2.70;;;;;;;;;;5052910;28;20233;-86
2022/09/22 03:40:52;;;;;;;3.40;2.97;;;;;;;;;;5053673;28;20205;-87
2022/09/22 03:43:19;;;;;;;2.70;2.50;;;;;;;;;;5067462;28;20218;-87
2022/09/22 03:45:48;;;;;;;4.37;3.00;;;;;;;;;;5054775;28;20234;-88
2022/09/22 03:48:15;;;;;;;3.20;2.90;;;;;;;;;;5052633;28;20226;-87
2022/09/22 03:50:42;;;;;;;5.80;2.87;;;;;;;;;;5053434;28;20646;-87
2022/09/22 03:53:09;;;;;;;3.30;3.00;;;;;;;;;;5053139;28;20206;-86
2022/09/22 03:55:36;;;;;;;3.50;2.80;;;;;;;;;;5053649;28;20229;-87
2022/09/22 03:58:03;;;;;;;2.83;2.63;;;;;;;;;;5052568;28;20204;-88
2022/09/22 04:00:30;;;;;;;3.17;2.97;;;;;;;;;;5052211;28;20213;-88
2022/09/22 04:02:59;;;;;;;3.30;2.83;;;;;;;;;;5052865;28;20214;-88
2022/09/22 04:05:26;;;;;;;3.07;2.60;;;;;;;;;;5052333;28;20248;-87
2022/09/22 04:07:53;;;;;;;9.17;2.80;;;;;;;;;;5051092;28;20232;-88
2022/09/22 04:10:20;;;;;;;3.93;2.90;;;;;;;;;;5032433;28;20244;-86
2022/09/22 04:12:48;;;;;;;4.30;2.73;;;;;;;;;;5033071;28;20700;-86
2022/09/22 04:15:15;;;;;;;6.73;3.30;;;;;;;;;;5059214;28;20241;-86
2022/09/22 04:17:43;;;;;;;3.50;3.20;;;;;;;;;;5052936;28;20588;-86
2022/09/22 04:20:11;;;;;;;3.43;3.13;;;;;;;;;;5059703;28;20284;-86
2022/09/22 04:22:39;;;;;;;5.17;3.70;;;;;;;;;;5060638;28;20235;-86
2022/09/22 04:25:07;;;;;;;3.50;3.20;;;;;;;;;;5053956;28;20237;-86
2022/09/22 04:27:34;;;;;;;3.20;3.00;;;;;;;;;;5053020;28;20254;-86
2022/09/22 04:30:01;;;;;;;3.90;2.90;;;;;;;;;;5052493;28;20233;-88
2022/09/22 04:32:29;;;;;;;3.40;2.90;;;;;;;;;;5056749;28;20582;-87
2022/09/22 04:34:56;;;;;;;2.87;2.60;;;;;;;;;;5052126;28;20229;-88
2022/09/22 04:37:24;;;;;;;4.80;3.10;;;;;;;;;;5053154;28;20698;-87
2022/09/22 04:39:53;;;;;;;3.10;2.80;;;;;;;;;;5052036;28;20243;-89
2022/09/22 04:42:20;;;;;;;3.13;2.93;;;;;;;;;;5052298;28;20662;-89
2022/09/22 04:44:47;;;;;;;4.70;3.47;;;;;;;;;;5051678;28;20312;-83
2022/09/22 04:47:14;;;;;;;3.40;3.10;;;;;;;;;;5051689;28;20201;-83
2022/09/22 04:49:41;;;;;;;4.80;3.03;;;;;;;;;;5050628;28;20237;-81
2022/09/22 04:52:08;;;;;;;3.40;3.10;;;;;;;;;;5051552;28;20209;-84
2022/09/22 04:54:36;;;;;;;3.33;3.03;;;;;;;;;;5051277;28;20233;-83
2022/09/22 04:57:04;;;;;;;3.07;2.87;;;;;;;;;;5051849;28;20572;-83
2022/09/22 04:59:31;;;;;;;5.30;3.03;;;;;;;;;;5048847;28;20533;-82
2022/09/22 05:01:58;;;;;;;3.80;2.93;;;;;;;;;;5055712;28;20202;-83
2022/09/22 05:04:25;;;;;;;3.60;2.60;;;;;;;;;;5055457;28;20241;-82
2022/09/22 05:06:52;;;;;;;3.10;2.80;;;;;;;;;;5056599;28;20257;-83
2022/09/22 05:09:20;;;;;;;3.83;3.50;;;;;;;;;;5056831;28;20701;-82
2022/09/22 05:11:49;;;;;;;5.70;3.00;;;;;;;;;;5059822;28;20215;-84
2022/09/22 05:14:16;;;;;;;3.20;3.00;;;;;;;;;;5058480;28;20235;-83
2022/09/22 05:16:43;;;;;;;6.03;3.00;;;;;;;;;;5058020;28;20221;-87
2022/09/22 05:19:11;;;;;;;9.03;3.57;;;;;;;;;;5055655;28;20240;-83
2022/09/22 05:21:38;;;;;;;4.63;3.37;;;;;;;;;;5055942;28;20209;-84
2022/09/22 05:24:05;;;;;;;5.63;3.23;;;;;;;;;;5055821;28;20604;-84
2022/09/22 05:26:33;;;;;;;5.37;3.07;;;;;;;;;;5055840;28;20571;-84
2022/09/22 05:29:01;;;;;;;3.93;3.30;;;;;;;;;;5055335;28;20283;-84
2022/09/22 05:31:28;;;;;;;5.20;3.43;;;;;;;;;;5056263;28;20216;-84
2022/09/22 05:33:55;;;;;;;4.30;3.47;;;;;;;;;;5056129;28;20234;-87
2022/09/22 05:36:22;;;;;;;5.87;4.10;;;;;;;;;;5058165;28;20225;-87
2022/09/22 05:38:50;;;;;;;5.67;3.90;;;;;;;;;;5053903;28;20721;-87
2022/09/22 05:41:17;;;;;;;9.23;6.07;;;;;;;;;;5055493;28;20219;-86
2022/09/22 05:43:44;;;;;;;7.43;4.37;;;;;;;;;;5054953;28;20245;-87
2022/09/22 05:46:13;;;;;;;4.63;4.10;;;;;;;;;;5056529;28;20236;-87
2022/09/22 05:48:40;;;;;;;6.63;3.53;;;;;;;;;;5055723;28;20236;-87
2022/09/22 05:51:07;;;;;;;8.77;3.90;;;;;;;;;;5055576;28;20208;-87
2022/09/22 05:53:34;;;;;;;7.20;4.50;;;;;;;;;;5056556;28;20234;-87
2022/09/22 05:56:01;;;;;;;4.27;3.87;;;;;;;;;;5056388;28;20228;-85
2022/09/22 05:58:29;;;;;;;4.70;4.20;;;;;;;;;;5055571;28;20638;-87
2022/09/22 06:00:57;;;;;;;6.57;4.10;;;;;;;;;;5055909;28;20221;-84
2022/09/22 06:03:26;;;;;;;5.90;4.03;;;;;;;;;;5055923;28;20771;-87
2022/09/22 06:05:53;;;;;;;7.70;4.17;;;;;;;;;;5056629;28;20636;-87
2022/09/22 06:08:21;;;;;;;5.50;4.13;;;;;;;;;;5055396;28;20224;-87
2022/09/22 06:10:50;;;;;;;10.97;4.17;;;;;;;;;;5053853;28;20210;-87
2022/09/22 06:13:17;;;;;;;7.43;4.40;;;;;;;;;;5051641;28;20210;-87
2022/09/22 06:15:46;;;;;;;5.07;4.53;;;;;;;;;;5054296;28;20225;-87
2022/09/22 06:18:14;;;;;;;4.93;4.43;;;;;;;;;;5052992;28;20249;-87
2022/09/22 06:20:43;;;;;;;5.70;5.10;;;;;;;;;;5052913;28;20197;-87
2022/09/22 06:23:11;;;;;;;5.87;4.70;;;;;;;;;;5053833;28;20271;-87
2022/09/22 06:25:38;;;;;;;6.17;4.43;;;;;;;;;;5047526;28;20826;-87
2022/09/22 06:28:06;;;;;;;8.53;4.60;;;;;;;;;;5053316;28;20224;-87
2022/09/22 06:30:34;;;;;;;4.93;4.40;;;;;;;;;;5054438;28;20213;-88
2022/09/22 06:33:01;;;;;;;11.80;5.27;;;;;;;;;;5053506;28;20220;-87
2022/09/22 06:35:35;;;;;;;10.87;5.53;;;;;;;;;;5054078;28;20233;-87
2022/09/22 06:38:04;;;;;;;10.77;5.77;;;;;;;;;;5053235;28;20208;-88
2022/09/22 06:40:32;;;;;;;6.10;5.30;;;;;;;;;;5054300;28;20217;-87
2022/09/22 06:43:00;;;;;;;10.13;5.90;;;;;;;;;;5054321;28;20424;-88
2022/09/22 06:45:28;;;;;;;12.57;6.33;;;;;;;;;;5054571;28;20243;-87
2022/09/22 06:47:57;;;;;;;7.93;6.40;;;;;;;;;;5053135;28;20869;-87
2022/09/22 06:50:25;;;;;;;11.10;6.23;;;;;;;;;;5053222;28;20238;-87
2022/09/22 06:52:52;;;;;;;12.87;6.10;;;;;;;;;;5053674;28;20685;-87
2022/09/22 06:55:20;;;;;;;9.43;7.03;;;;;;;;;;5052996;28;20246;-86
2022/09/22 06:57:48;;;;;;;8.70;6.60;;;;;;;;;;5052965;28;20204;-87
2022/09/22 07:00:16;;;;;;;8.23;6.93;;;;;;;;;;5052789;28;20229;-87
2022/09/22 07:02:43;;;;;;;7.47;6.70;;;;;;;;;;5054111;28;20216;-85
2022/09/22 07:05:11;;;;;;;18.43;7.07;;;;;;;;;;5052623;28;20256;-87
2022/09/22 07:07:38;;;;;;;11.23;7.67;;;;;;;;;;5053419;28;20668;-87
2022/09/22 07:10:06;;;;;;;11.67;7.57;;;;;;;;;;5052735;28;20240;-88
2022/09/22 07:12:34;;;;;;;11.07;7.97;;;;;;;;;;5053606;28;20575;-88
2022/09/22 07:15:01;;;;;;;8.10;7.30;;;;;;;;;;5050868;28;20234;-87
2022/09/22 07:17:30;;;;;;;13.50;8.50;;;;;;;;;;5049811;28;20206;-86
2022/09/22 07:19:57;;;;;;;8.23;7.37;;;;;;;;;;5052418;28;20605;-88
2022/09/22 07:22:25;;;;;;;13.63;8.40;;;;;;;;;;5052430;28;20733;-86
2022/09/22 07:24:52;;;;;;;10.97;8.37;;;;;;;;;;5051957;28;20230;-86
2022/09/22 07:27:25;;;;;;;13.30;9.00;;;;;;;;;;5047224;28;20202;-90
2022/09/22 07:29:56;;;;;;;13.43;9.27;;;;;;;;;;5052204;28;20720;-89
2022/09/22 07:32:23;;;;;;;11.33;8.53;;;;;;;;;;5052085;28;20202;-84
2022/09/22 07:34:51;;;;;;;11.87;9.03;;;;;;;;;;5052145;28;20237;-89
2022/09/22 07:37:18;;;;;;;15.47;10.13;;;;;;;;;;5052912;28;20228;-85
2022/09/22 07:39:45;;;;;;;11.93;10.27;;;;;;;;;;5051172;28;20608;-84
2022/09/22 07:42:13;;;;;;;12.70;9.37;;;;;;;;;;5052894;28;20289;-88
2022/09/22 07:50:22;;;;;;;10.50;8.30;;;;;;;;;;5044701;28;20596;-84
2022/09/22 07:52:51;;;;;;;10.70;8.13;;;;;;;;;;5052341;28;20225;-85
2022/09/22 07:55:21;;;;;;;8.80;7.40;;;;;;;;;;5051702;28;20270;-88
2022/09/22 07:57:53;;;;;;;10.63;7.37;;;;;;;;;;5039175;28;20241;-88
2022/09/22 08:00:20;;;;;;;7.17;6.47;;;;;;;;;;5032035;28;20710;-89
2022/09/22 08:02:54;;;;;;;6.77;5.50;;;;;;;;;;5033076;28;20218;-87
2022/09/22 08:05:21;;;;;;;7.07;6.00;;;;;;;;;;5032274;28;21035;-88
2022/09/22 08:07:48;;;;;;;5.87;4.53;;;;;;;;;;5032603;28;20210;-88
2022/09/22 08:10:15;;;;;;;5.47;4.83;;;;;;;;;;5032346;28;20238;-89
2022/09/22 08:12:42;;;;;;;8.27;4.00;;;;;;;;;;5032950;28;20667;-88
2022/09/22 08:15:10;;;;;;;4.70;4.20;;;;;;;;;;5040917;28;20320;-89
2022/09/22 08:17:38;;;;;;;4.23;3.80;;;;;;;;;;5053040;28;20696;-89
2022/09/22 08:20:08;;;;;;;3.87;3.57;;;;;;;;;;5051401;28;20272;-88
2022/09/22 08:22:35;;;;;;;7.20;3.67;;;;;;;;;;5052994;28;20198;-88
2022/09/22 08:25:02;;;;;;;5.67;3.20;;;;;;;;;;5052677;28;20240;-87
2022/09/22 08:27:29;;;;;;;3.83;3.53;;;;;;;;;;5052080;28;20724;-86
2022/09/22 08:29:57;;;;;;;5.03;3.70;;;;;;;;;;5052561;28;20234;-88
2022/09/22 08:32:25;;;;;;;8.17;3.23;;;;;;;;;;5052808;28;20584;-88
2022/09/22 08:34:56;;;;;;;3.20;2.90;;;;;;;;;;5051791;28;20643;-88
2022/09/22 08:37:26;;;;;;;3.80;2.90;;;;;;;;;;5053521;28;20215;-85
2022/09/22 08:39:53;;;;;;;4.10;2.83;;;;;;;;;;5051920;28;20768;-84
2022/09/22 08:42:22;;;;;;;7.17;3.50;;;;;;;;;;5051558;28;20554;-86
2022/09/22 08:44:55;;;;;;;5.40;2.97;;;;;;;;;;5051983;28;20704;-85
2022/09/22 08:52:57;;;;;;;4.00;3.17;;;;;;;;;;5052591;28;20213;-89
2022/09/22 08:55:25;;;;;;;2.93;2.60;;;;;;;;;;5052669;28;20288;-89
2022/09/22 08:57:59;;;;;;;5.07;3.13;;;;;;;;;;5045478;28;20727;-89
2022/09/22 09:00:30;;;;;;;3.67;2.60;;;;;;;;;;5051614;28;20238;-89
2022/09/22 09:03:03;;;;;;;2.50;2.30;;;;;;;;;;5051451;28;20298;-88
2022/09/22 09:05:45;;;;;;;5.23;2.23;;;;;;;;;;5050735;28;20234;-89
2022/09/22 09:08:31;;;;;;;2.87;2.57;;;;;;;;;;5051349;28;20216;-89
2022/09/22 09:11:05;;;;;;;3.83;2.53;;;;;;;;;;5052384;28;20252;-88
2022/09/22 09:13:41;;;;;;;3.50;2.33;;;;;;;;;;5052609;28;20320;-89
2022/09/22 09:16:17;;;;;;;5.47;2.10;;;;;;;;;;5053119;28;20229;-88
2022/09/22 09:18:45;;;;;;;1.90;1.80;;;;;;;;;;5052465;28;20225;-89
2022/09/22 09:21:16;;;;;;;2.47;2.27;;;;;;;;;;5052560;28;20213;-89
2022/09/22 09:23:45;;;;;;;2.63;2.00;;;;;;;;;;5043456;28;20651;-89
2022/09/22 09:26:15;;;;;;;2.10;1.90;;;;;;;;;;5049169;28;20238;-88
2022/09/22 09:28:44;;;;;;;2.55;1.65;;;;;;;;;;5051820;28;20268;-89
2022/09/22 09:31:14;;;;;;;2.67;1.80;;;;;;;;;;5049426;28;20207;-89
2022/09/22 09:33:44;;;;;;;3.60;1.92;;;;;;;;;;5051151;28;20292;-89
2022/09/22 09:36:13;;;;;;;4.15;1.80;;;;;;;;;;5051907;28;20236;-89
2022/09/22 09:38:43;;;;;;;3.13;1.77;;;;;;;;;;5051838;28;20635;-89
2022/09/22 09:41:13;;;;;;;1.85;1.75;;;;;;;;;;5049122;28;20216;-88
2022/09/22 09:43:44;;;;;;;3.38;1.55;;;;;;;;;;5033392;28;20313;-90
2022/09/22 09:46:15;;;;;;;2.53;1.38;;;;;;;;;;5032952;28;20284;-89
2022/09/22 09:48:49;;;;;;;2.03;1.50;;;;;;;;;;5036014;28;20230;-89
2022/09/22 09:51:16;;;;;;;2.92;1.73;;;;;;;;;;5035946;28;20191;-90
2022/09/22 09:53:43;;;;;;;2.58;1.80;;;;;;;;;;5035910;28;20706;-89
2022/09/22 09:56:17;;;;;;;1.77;1.50;;;;;;;;;;5036656;28;20584;-90
2022/09/22 10:01:41;;;;;;;1.60;1.50;;;;;;;;;;5036249;28;20206;-88
2022/09/22 10:04:20;;;;;;;3.05;1.35;;;;;;;;;;5035661;28;20265;-89
2022/09/22 10:06:47;;;;;;;2.28;1.30;;;;;;;;;;5046028;28;20242;-90
2022/09/22 10:09:23;;;;;;;2.60;1.30;;;;;;;;;;5054559;28;20233;-88
2022/09/22 10:11:58;;;;;;;1.70;1.25;;;;;;;;;;5054389;28;20220;-89
2022/09/22 10:14:27;;;;;;;1.55;1.40;;;;;;;;;;5053904;28;20233;-90
2022/09/22 10:16:54;;;;;;;1.85;1.20;;;;;;;;;;5056188;28;20229;-90
2022/09/22 10:19:22;;;;;;;2.28;1.40;;;;;;;;;;5054959;28;20241;-90
2022/09/22 10:21:49;;;;;;;1.58;1.13;;;;;;;;;;5055974;28;20579;-89
2022/09/22 10:24:24;;;;;;;2.67;1.00;;;;;;;;;;5055605;28;20632;-90
2022/09/22 10:26:54;;;;;;;1.27;1.02;;;;;;;;;;5056040;28;20244;-86
2022/09/22 10:29:21;;;;;;;1.95;1.00;;;;;;;;;;5053892;28;20259;-86
2022/09/22 10:32:02;;;;;;;1.83;1.15;;;;;;;;;;5052984;28;20229;-86
2022/09/22 10:34:30;;;;;;;1.35;1.17;;;;;;;;;;5049625;28;20253;-86
2022/09/22 10:36:58;;;;;;;1.20;0.95;;;;;;;;;;5055036;28;20317;-86
2022/09/22 10:39:27;;;;;;;2.05;1.10;;;;;;;;;;5054003;28;20234;-87
2022/09/22 10:41:55;;;;;;;2.92;1.05;;;;;;;;;;5054758;28;20209;-86
2022/09/22 10:44:25;;;;;;;1.60;0.93;;;;;;;;;;5053806;28;20242;-85
2022/09/22 10:47:01;;;;;;;1.10;1.00;;;;;;;;;;5054439;28;20333;-86
2022/09/22 10:49:38;;;;;;;1.48;1.27;;;;;;;;;;5050457;28;20236;-86
2022/09/22 10:52:10;;;;;;;1.88;1.02;;;;;;;;;;5041820;28;20198;-86
2022/09/22 10:54:43;;;;;;;1.73;1.00;;;;;;;;;;5054218;28;20254;-86
2022/09/22 10:57:18;;;;;;;1.13;0.60;;;;;;;;;;5053847;28;20209;-86
2022/09/22 10:59:54;;;;;;;2.47;1.23;;;;;;;;;;5038232;28;20233;-86
2022/09/22 11:02:36;;;;;;;1.65;0.90;;;;;;;;;;5034535;28;20564;-86
2022/09/22 11:05:16;;;;;;;2.40;0.98;;;;;;;;;;5050355;28;20230;-87
2022/09/22 11:13:36;;;;;;;2.13;0.73;;;;;;;;;;5053378;28;20228;-86
2022/09/22 11:16:21;;;;;;;1.13;0.93;;;;;;;;;;5052593;28;20233;-87
2022/09/22 11:18:54;;;;;;;1.77;0.90;;;;;;;;;;5055429;28;20230;-89
2022/09/22 11:21:31;;;;;;;0.93;0.60;;;;;;;;;;5053728;28;20202;-88
2022/09/22 11:24:07;;;;;;;5.25;1.80;;;;;;;;;;5054555;28;20236;-89
2022/09/22 11:26:47;;;;;;;1.95;1.10;;;;;;;;;;5055233;28;20643;-89
2022/09/22 11:29:29;;;;;;;1.30;0.75;;;;;;;;;;5035227;28;20246;-89
2022/09/22 11:32:01;;;;;;;1.85;0.70;;;;;;;;;;5031017;28;20972;-89
2022/09/22 11:34:47;;;;;;;0.80;0.80;;;;;;;;;;5052047;28;20233;-89
2022/09/22 11:37:25;;;;;;;2.78;0.65;;;;;;;;;;5049683;28;20202;-90
2022/09/22 11:39:58;;;;;;;2.78;0.80;;;;;;;;;;5052311;28;20238;-87
2022/09/22 11:42:27;;;;;;;1.85;0.82;;;;;;;;;;5055464;28;20232;-81
2022/09/22 11:44:59;;;;;;;1.13;0.80;;;;;;;;;;5057451;28;20230;-80
2022/09/22 11:47:32;;;;;;;0.95;0.70;;;;;;;;;;5057497;28;20221;-80
2022/09/22 11:50:25;;;;;;;1.45;1.27;;;;;;;;;;5056036;28;20288;-81
2022/09/22 11:53:02;;;;;;;1.63;0.63;;;;;;;;;;5060575;28;20198;-80
2022/09/22 11:55:34;;;;;;;0.93;0.68;;;;;;;;;;5058625;28;20239;-81
2022/09/22 11:58:03;;;;;;;11.55;1.70;;;;;;;;;;5056904;28;20206;-81
2022/09/22 12:00:35;;;;;;;1.15;0.88;;;;;;;;;;5053723;28;20206;-78
2022/09/22 12:03:09;;;;;;;1.77;0.70;;;;;;;;;;5052733;28;20214;-78
2022/09/22 12:05:40;;;;;;;0.88;0.60;;;;;;;;;;5054273;28;20253;-79
2022/09/22 12:08:11;;;;;;;6.70;0.85;;;;;;;;;;5051518;28;20210;-79
2022/09/22 12:10:41;;;;;;;1.30;0.95;;;;;;;;;;5035376;28;20233;-79
2022/09/22 12:13:11;;;;;;;7.57;2.20;;;;;;;;;;5049851;28;20229;-79
2022/09/22 12:15:45;;;;;;;7.03;1.90;;;;;;;;;;5044309;28;20240;-77
2022/09/22 12:18:14;;;;;;;0.40;0.40;;;;;;;;;;5054074;28;20290;-79
2022/09/22 12:20:46;;;;;;;0.85;0.77;;;;;;;;;;5049018;28;20210;-79
2022/09/22 12:23:19;;;;;;;1.38;0.68;;;;;;;;;;5052235;28;20206;-79
2022/09/22 12:25:48;;;;;;;1.20;0.70;;;;;;;;;;5054682;28;20602;-79
2022/09/22 12:28:16;;;;;;;1.02;0.80;;;;;;;;;;5055896;28;20206;-79
2022/09/22 12:30:52;;;;;;;1.92;0.90;;;;;;;;;;5055349;28;20303;-78
2022/09/22 12:33:19;;;;;;;1.27;0.82;;;;;;;;;;5050626;28;20315;-77
2022/09/22 12:35:52;;;;;;;0.70;0.70;;;;;;;;;;5053625;28;20242;-77
2022/09/22 12:38:22;;;;;;;0.70;0.60;;;;;;;;;;5052162;28;20380;-79
2022/09/22 12:40:50;;;;;;;1.52;0.77;;;;;;;;;;5052873;28;20614;-79
2022/09/22 12:43:19;;;;;;;0.93;0.80;;;;;;;;;;5052644;28;20570;-77
2022/09/22 12:45:46;;;;;;;0.85;0.60;;;;;;;;;;5050899;28;20312;-77
2022/09/22 12:48:16;;;;;;;0.63;0.63;;;;;;;;;;5048252;28;20205;-78
2022/09/22 12:50:43;;;;;;;1.02;0.60;;;;;;;;;;5053641;28;20242;-78
2022/09/22 12:53:12;;;;;;;2.42;0.55;;;;;;;;;;5053750;28;20202;-79
2022/09/22 12:55:40;;;;;;;1.90;0.57;;;;;;;;;;5051742;28;20237;-78
2022/09/22 12:58:28;;;;;;;0.60;0.57;;;;;;;;;;5056335;28;20221;-79
2022/09/22 13:00:56;;;;;;;3.22;0.60;;;;;;;;;;5055873;28;20259;-78
2022/09/22 13:03:38;;;;;;;2.47;0.70;;;;;;;;;;5054591;28;20240;-78
2022/09/22 13:06:26;;;;;;;1.33;0.68;;;;;;;;;;5054605;28;20233;-78
2022/09/22 13:09:09;;;;;;;2.38;0.95;;;;;;;;;;5049861;28;20237;-78
2022/09/22 13:11:55;;;;;;;1.15;1.08;;;;;;;;;;5050470;28;20733;-79
2022/09/22 13:14:41;;;;;;;0.52;0.52;;;;;;;;;;5057533;28;20665;-79
2022/09/22 13:17:23;;;;;;;0.80;0.63;;;;;;;;;;5053892;28;20206;-78
2022/09/22 13:19:55;;;;;;;1.77;0.85;;;;;;;;;;5048542;28;20233;-78
2022/09/22 13:22:22;;;;;;;1.00;0.85;;;;;;;;;;5053805;28;20210;-77
2022/09/22 13:24:49;;;;;;;1.25;0.80;;;;;;;;;;5056547;28;20234;-80
2022/09/22 13:27:16;;;;;;;2.85;0.77;;;;;;;;;;5056421;28;20577;-80
2022/09/22 13:29:57;;;;;;;0.63;0.38;;;;;;;;;;5055415;28;20229;-79
2022/09/22 13:32:26;;;;;;;0.65;0.65;;;;;;;;;;5061615;28;20206;-78
2022/09/22 13:34:55;;;;;;;0.80;0.80;;;;;;;;;;5057820;28;20238;-78
2022/09/22 13:37:23;;;;;;;1.75;0.73;;;;;;;;;;5053686;28;20201;-76
2022/09/22 13:39:51;;;;;;;0.68;0.65;;;;;;;;;;5056290;28;20767;-78
2022/09/22 13:42:21;;;;;;;2.05;1.05;;;;;;;;;;5054528;28;20202;-78
2022/09/22 13:44:50;;;;;;;6.35;1.05;;;;;;;;;;5054384;28;20225;-79
2022/09/22 13:47:20;;;;;;;3.58;0.65;;;;;;;;;;5058236;28;20193;-79
2022/09/22 13:49:50;;;;;;;0.55;0.55;;;;;;;;;;5057861;28;20230;-79
2022/09/22 13:52:20;;;;;;;2.53;0.50;;;;;;;;;;5057306;28;20241;-80
2022/09/22 13:54:49;;;;;;;0.70;0.70;;;;;;;;;;5056776;28;20283;-80
2022/09/22 13:57:20;;;;;;;0.82;0.82;;;;;;;;;;5057311;28;20310;-79
2022/09/22 13:59:47;;;;;;;1.23;0.93;;;;;;;;;;5057761;28;20262;-79
2022/09/22 14:02:14;;;;;;;1.80;0.55;;;;;;;;;;5057137;28;20210;-86
2022/09/22 14:04:50;;;;;;;0.55;0.55;;;;;;;;;;5055464;28;20238;-87
2022/09/22 14:07:19;;;;;;;1.35;0.60;;;;;;;;;;5055626;28;20201;-87
2022/09/22 14:09:47;;;;;;;1.05;0.68;;;;;;;;;;5055424;28;20240;-87
2022/09/22 14:12:14;;;;;;;1.58;0.75;;;;;;;;;;5056515;28;20214;-87
2022/09/22 14:14:41;;;;;;;5.18;2.03;;;;;;;;;;5054451;28;20244;-87
2022/09/22 14:17:13;;;;;;;0.95;0.75;;;;;;;;;;5055003;28;20214;-88
2022/09/22 14:19:41;;;;;;;1.52;0.77;;;;;;;;;;5054789;28;20241;-88
2022/09/22 14:22:15;;;;;;;3.20;0.90;;;;;;;;;;5055696;28;20236;-87
2022/09/22 14:24:47;;;;;;;0.82;0.70;;;;;;;;;;5055882;28;20748;-87
2022/09/22 14:27:18;;;;;;;1.77;0.82;;;;;;;;;;5060086;28;20218;-87
2022/09/22 14:29:50;;;;;;;0.60;0.60;;;;;;;;;;5054989;28;20740;-87
2022/09/22 14:32:20;;;;;;;2.47;0.85;;;;;;;;;;5055608;28;20230;-87
2022/09/22 14:34:48;;;;;;;1.05;0.90;;;;;;;;;;5055148;28;20242;-88
2022/09/22 14:37:19;;;;;;;1.60;0.75;;;;;;;;;;5054757;28;20293;-87
2022/09/22 14:39:49;;;;;;;2.45;0.70;;;;;;;;;;5054601;28;20257;-88
2022/09/22 14:42:19;;;;;;;10.60;1.77;;;;;;;;;;5055505;28;20272;-86
2022/09/22 14:44:47;;;;;;;1.52;1.00;;;;;;;;;;5054598;28;20266;-86
2022/09/22 14:47:23;;;;;;;0.75;0.60;;;;;;;;;;5054871;28;20214;-87
2022/09/22 14:49:50;;;;;;;1.00;0.70;;;;;;;;;;5054391;28;20234;-88
2022/09/22 14:52:25;;;;;;;1.02;0.98;;;;;;;;;;5054829;28;20229;-87
2022/09/22 14:54:54;;;;;;;0.80;0.80;;;;;;;;;;5055332;28;20233;-88
2022/09/22 14:57:22;;;;;;;0.85;0.65;;;;;;;;;;5056227;28;20206;-87
2022/09/22 15:02:40;;;;;;;0.98;0.90;;;;;;;;;;5058209;28;20209;-87
2022/09/22 15:05:08;;;;;;;1.02;0.82;;;;;;;;;;5054711;28;20249;-87
2022/09/22 15:07:36;;;;;;;1.25;0.90;;;;;;;;;;5054795;28;20214;-88
2022/09/22 15:10:06;;;;;;;1.45;0.93;;;;;;;;;;5054270;28;20233;-87
2022/09/22 15:12:38;;;;;;;3.17;1.17;;;;;;;;;;5059177;28;20217;-87
2022/09/22 15:15:16;;;;;;;1.77;0.77;;;;;;;;;;5057269;28;20230;-87
2022/09/22 15:20:33;;;;;;;1.33;1.02;;;;;;;;;;5053218;28;20271;-88
2022/09/22 15:23:01;;;;;;;2.15;0.93;;;;;;;;;;5053564;28;20734;-88
2022/09/22 15:25:29;;;;;;;1.15;0.90;;;;;;;;;;5053194;28;20234;-88